Adena, Ohio
Current Conditions -  °F | °C
As of 12:53 PM on Thursday 29 Jan 2015 (Local Time) from KHLG Reporting Station
Light Rain Light Rain  
Wind Chill: 26°   Ceiling: 3900
Heat Index: 35°   Visibility: 5mi
Dew Point: 31°   Wind: 15mph
Humidity: 85%   Direction: 200°SSW
Pressure: 29.84"   Gusts: 24mph
Location:  40.22°N, 80.87°W
Report Text: KHLG 291753Z 20013G21KT 5SM -RA BR SCT030 OVC039 02/M01 A2984 RMK AO2 RAB10FZRAE10 SLP121 P0005 60014 I1000 I6003 T00171006 10017 21039 58028
Loading
Personal Weather Stations






























Interactive Weather Map New forecast layout! Learn more

10-Day Weather Forecast

Advertisements
Track Severe Weather on mobile